sensor_id;sensor_type;location;lat;lon;timestamp;P1;durP1;ratioP1;P2;durP2;ratioP2
75737;SDS011;64356;45.638;13.764;2023-06-22T00:00:50;14.65;;;11.48;;
75737;SDS011;64356;45.638;13.764;2023-06-22T00:03:20;16.33;;;10.70;;
75737;SDS011;64356;45.638;13.764;2023-06-22T00:05:47;14.88;;;11.20;;
75737;SDS011;64356;45.638;13.764;2023-06-22T00:08:13;18.75;;;12.07;;
75737;SDS011;64356;45.638;13.764;2023-06-22T00:10:40;17.73;;;11.57;;
75737;SDS011;64356;45.638;13.764;2023-06-22T00:13:06;16.95;;;10.40;;
75737;SDS011;64356;45.638;13.764;2023-06-22T00:15:33;16.30;;;10.95;;
75737;SDS011;64356;45.638;13.764;2023-06-22T00:17:59;17.13;;;11.88;;
75737;SDS011;64356;45.638;13.764;2023-06-22T00:20:25;13.05;;;11.20;;
75737;SDS011;64356;45.638;13.764;2023-06-22T00:22:55;15.40;;;11.75;;
75737;SDS011;64356;45.638;13.764;2023-06-22T00:25:22;19.30;;;10.90;;
75737;SDS011;64356;45.638;13.764;2023-06-22T00:27:48;21.67;;;11.02;;
75737;SDS011;64356;45.638;13.764;2023-06-22T00:30:17;18.77;;;10.38;;
75737;SDS011;64356;45.638;13.764;2023-06-22T00:32:44;17.02;;;10.93;;
75737;SDS011;64356;45.638;13.764;2023-06-22T00:35:11;16.25;;;10.98;;
75737;SDS011;64356;45.638;13.764;2023-06-22T00:37:37;27.58;;;11.88;;
75737;SDS011;64356;45.638;13.764;2023-06-22T00:40:07;14.82;;;11.23;;
75737;SDS011;64356;45.638;13.764;2023-06-22T00:42:36;17.73;;;10.75;;
75737;SDS011;64356;45.638;13.764;2023-06-22T00:45:02;15.45;;;10.43;;
75737;SDS011;64356;45.638;13.764;2023-06-22T00:47:28;17.35;;;11.15;;
75737;SDS011;64356;45.638;13.764;2023-06-22T00:49:54;17.23;;;11.85;;
75737;SDS011;64356;45.638;13.764;2023-06-22T00:52:20;15.32;;;10.90;;
75737;SDS011;64356;45.638;13.764;2023-06-22T00:54:52;25.40;;;11.88;;
75737;SDS011;64356;45.638;13.764;2023-06-22T00:57:18;14.05;;;11.38;;
75737;SDS011;64356;45.638;13.764;2023-06-22T00:59:45;15.82;;;11.70;;
75737;SDS011;64356;45.638;13.764;2023-06-22T01:02:13;18.95;;;10.82;;
75737;SDS011;64356;45.638;13.764;2023-06-22T01:04:39;15.30;;;11.38;;
75737;SDS011;64356;45.638;13.764;2023-06-22T01:12:35;20.25;;;11.05;;
75737;SDS011;64356;45.638;13.764;2023-06-22T01:15:10;12.43;;;10.73;;
75737;SDS011;64356;45.638;13.764;2023-06-22T01:17:40;17.02;;;11.88;;
75737;SDS011;64356;45.638;13.764;2023-06-22T01:20:08;20.98;;;11.38;;
75737;SDS011;64356;45.638;13.764;2023-06-22T01:23:42;16.95;;;10.30;;
75737;SDS011;64356;45.638;13.764;2023-06-22T01:31:18;16.35;;;11.20;;
75737;SDS011;64356;45.638;13.764;2023-06-22T01:33:50;16.60;;;11.32;;
75737;SDS011;64356;45.638;13.764;2023-06-22T01:36:19;12.90;;;11.45;;
75737;SDS011;64356;45.638;13.764;2023-06-22T01:38:47;17.08;;;11.70;;
75737;SDS011;64356;45.638;13.764;2023-06-22T01:41:14;22.33;;;11.55;;
75737;SDS011;64356;45.638;13.764;2023-06-22T01:43:42;24.40;;;11.85;;
75737;SDS011;64356;45.638;13.764;2023-06-22T01:46:08;27.05;;;11.75;;
75737;SDS011;64356;45.638;13.764;2023-06-22T01:48:36;18.88;;;10.85;;
75737;SDS011;64356;45.638;13.764;2023-06-22T01:51:03;17.88;;;11.00;;
75737;SDS011;64356;45.638;13.764;2023-06-22T01:53:28;14.75;;;10.23;;
75737;SDS011;64356;45.638;13.764;2023-06-22T01:55:54;19.90;;;11.23;;
75737;SDS011;64356;45.638;13.764;2023-06-22T01:58:23;20.92;;;10.57;;
75737;SDS011;64356;45.638;13.764;2023-06-22T02:01:10;23.83;;;11.13;;
75737;SDS011;64356;45.638;13.764;2023-06-22T02:03:44;13.90;;;10.93;;
75737;SDS011;64356;45.638;13.764;2023-06-22T02:06:16;18.95;;;11.73;;
75737;SDS011;64356;45.638;13.764;2023-06-22T02:08:47;17.17;;;11.60;;
75737;SDS011;64356;45.638;13.764;2023-06-22T02:11:26;15.23;;;11.57;;
75737;SDS011;64356;45.638;13.764;2023-06-22T02:13:54;18.60;;;11.98;;
75737;SDS011;64356;45.638;13.764;2023-06-22T02:16:22;17.13;;;11.52;;
75737;SDS011;64356;45.638;13.764;2023-06-22T02:18:48;17.73;;;11.32;;
75737;SDS011;64356;45.638;13.764;2023-06-22T02:21:21;17.40;;;11.63;;
75737;SDS011;64356;45.638;13.764;2023-06-22T02:23:47;13.80;;;11.40;;
75737;SDS011;64356;45.638;13.764;2023-06-22T02:26:12;15.48;;;12.07;;
75737;SDS011;64356;45.638;13.764;2023-06-22T02:28:38;16.85;;;11.50;;
75737;SDS011;64356;45.638;13.764;2023-06-22T02:31:04;18.77;;;11.68;;
75737;SDS011;64356;45.638;13.764;2023-06-22T02:33:30;17.58;;;12.32;;
75737;SDS011;64356;45.638;13.764;2023-06-22T02:35:56;15.02;;;11.13;;
75737;SDS011;64356;45.638;13.764;2023-06-22T02:38:21;19.52;;;12.45;;
75737;SDS011;64356;45.638;13.764;2023-06-22T02:40:49;20.33;;;12.45;;
75737;SDS011;64356;45.638;13.764;2023-06-22T02:43:15;19.45;;;12.73;;
75737;SDS011;64356;45.638;13.764;2023-06-22T02:45:41;17.70;;;11.15;;
75737;SDS011;64356;45.638;13.764;2023-06-22T02:48:07;20.25;;;12.23;;
75737;SDS011;64356;45.638;13.764;2023-06-22T02:50:33;17.95;;;12.27;;
75737;SDS011;64356;45.638;13.764;2023-06-22T02:52:58;19.42;;;11.60;;
75737;SDS011;64356;45.638;13.764;2023-06-22T02:55:24;15.05;;;11.50;;
75737;SDS011;64356;45.638;13.764;2023-06-22T02:57:50;16.30;;;11.55;;
75737;SDS011;64356;45.638;13.764;2023-06-22T03:00:17;21.67;;;12.32;;
75737;SDS011;64356;45.638;13.764;2023-06-22T03:02:44;15.20;;;11.65;;
75737;SDS011;64356;45.638;13.764;2023-06-22T03:05:14;19.80;;;12.18;;
75737;SDS011;64356;45.638;13.764;2023-06-22T03:07:43;15.13;;;11.32;;
75737;SDS011;64356;45.638;13.764;2023-06-22T03:10:10;16.90;;;12.55;;
75737;SDS011;64356;45.638;13.764;2023-06-22T03:12:38;19.40;;;11.60;;
75737;SDS011;64356;45.638;13.764;2023-06-22T03:15:07;17.80;;;12.32;;
75737;SDS011;64356;45.638;13.764;2023-06-22T03:20:01;15.95;;;11.80;;
75737;SDS011;64356;45.638;13.764;2023-06-22T03:22:34;17.60;;;12.25;;
75737;SDS011;64356;45.638;13.764;2023-06-22T03:25:00;20.80;;;12.52;;
75737;SDS011;64356;45.638;13.764;2023-06-22T03:27:26;16.20;;;12.55;;
75737;SDS011;64356;45.638;13.764;2023-06-22T03:29:52;17.48;;;11.88;;
75737;SDS011;64356;45.638;13.764;2023-06-22T03:32:18;16.42;;;12.32;;
75737;SDS011;64356;45.638;13.764;2023-06-22T03:34:43;16.90;;;12.35;;
75737;SDS011;64356;45.638;13.764;2023-06-22T03:37:12;18.35;;;12.48;;
75737;SDS011;64356;45.638;13.764;2023-06-22T03:39:39;15.02;;;12.13;;
75737;SDS011;64356;45.638;13.764;2023-06-22T03:42:06;17.27;;;12.43;;
75737;SDS011;64356;45.638;13.764;2023-06-22T03:44:32;19.02;;;12.70;;
75737;SDS011;64356;45.638;13.764;2023-06-22T03:46:58;16.63;;;11.85;;
75737;SDS011;64356;45.638;13.764;2023-06-22T03:49:24;17.02;;;11.43;;
75737;SDS011;64356;45.638;13.764;2023-06-22T03:51:49;15.82;;;11.98;;
75737;SDS011;64356;45.638;13.764;2023-06-22T03:54:15;17.80;;;12.13;;
75737;SDS011;64356;45.638;13.764;2023-06-22T03:56:41;19.38;;;11.75;;
75737;SDS011;64356;45.638;13.764;2023-06-22T03:59:06;24.40;;;12.13;;
75737;SDS011;64356;45.638;13.764;2023-06-22T04:01:32;22.00;;;13.07;;
75737;SDS011;64356;45.638;13.764;2023-06-22T04:03:58;17.17;;;12.60;;
75737;SDS011;64356;45.638;13.764;2023-06-22T04:06:23;18.70;;;12.27;;
75737;SDS011;64356;45.638;13.764;2023-06-22T04:08:49;18.75;;;11.43;;
75737;SDS011;64356;45.638;13.764;2023-06-22T04:11:16;20.85;;;12.35;;
75737;SDS011;64356;45.638;13.764;2023-06-22T04:13:43;20.30;;;11.90;;
75737;SDS011;64356;45.638;13.764;2023-06-22T04:16:09;16.00;;;11.80;;
75737;SDS011;64356;45.638;13.764;2023-06-22T04:18:34;22.90;;;12.18;;
75737;SDS011;64356;45.638;13.764;2023-06-22T04:21:01;18.33;;;11.75;;
75737;SDS011;64356;45.638;13.764;2023-06-22T04:23:27;17.15;;;11.70;;
75737;SDS011;64356;45.638;13.764;2023-06-22T04:25:53;14.90;;;12.05;;
75737;SDS011;64356;45.638;13.764;2023-06-22T04:28:18;13.23;;;11.75;;
75737;SDS011;64356;45.638;13.764;2023-06-22T04:30:44;17.30;;;11.93;;
75737;SDS011;64356;45.638;13.764;2023-06-22T04:33:13;21.48;;;12.25;;
75737;SDS011;64356;45.638;13.764;2023-06-22T04:35:39;16.23;;;12.40;;
75737;SDS011;64356;45.638;13.764;2023-06-22T04:38:06;17.23;;;11.98;;
75737;SDS011;64356;45.638;13.764;2023-06-22T04:40:33;19.52;;;11.30;;
75737;SDS011;64356;45.638;13.764;2023-06-22T04:42:59;19.23;;;12.38;;
75737;SDS011;64356;45.638;13.764;2023-06-22T04:45:27;16.42;;;11.38;;
75737;SDS011;64356;45.638;13.764;2023-06-22T04:47:54;16.77;;;12.10;;
75737;SDS011;64356;45.638;13.764;2023-06-22T04:50:20;20.25;;;12.23;;
75737;SDS011;64356;45.638;13.764;2023-06-22T04:52:49;15.52;;;12.32;;
75737;SDS011;64356;45.638;13.764;2023-06-22T04:55:15;15.20;;;11.48;;
75737;SDS011;64356;45.638;13.764;2023-06-22T04:57:44;22.45;;;11.63;;
75737;SDS011;64356;45.638;13.764;2023-06-22T05:00:14;16.35;;;11.32;;
75737;SDS011;64356;45.638;13.764;2023-06-22T05:02:42;19.38;;;12.30;;
75737;SDS011;64356;45.638;13.764;2023-06-22T05:05:09;16.20;;;11.38;;
75737;SDS011;64356;45.638;13.764;2023-06-22T05:07:39;24.45;;;12.90;;
75737;SDS011;64356;45.638;13.764;2023-06-22T05:10:08;19.40;;;12.35;;
75737;SDS011;64356;45.638;13.764;2023-06-22T05:12:35;14.57;;;11.60;;
75737;SDS011;64356;45.638;13.764;2023-06-22T05:15:01;20.00;;;12.63;;
75737;SDS011;64356;45.638;13.764;2023-06-22T05:17:27;17.65;;;10.90;;
75737;SDS011;64356;45.638;13.764;2023-06-22T05:19:53;15.45;;;12.07;;
75737;SDS011;64356;45.638;13.764;2023-06-22T05:22:20;15.10;;;11.25;;
75737;SDS011;64356;45.638;13.764;2023-06-22T05:24:46;18.52;;;10.98;;
75737;SDS011;64356;45.638;13.764;2023-06-22T05:27:12;20.80;;;12.82;;
75737;SDS011;64356;45.638;13.764;2023-06-22T05:29:38;18.33;;;11.43;;
75737;SDS011;64356;45.638;13.764;2023-06-22T05:32:04;19.42;;;12.50;;
75737;SDS011;64356;45.638;13.764;2023-06-22T05:34:31;23.38;;;13.10;;
75737;SDS011;64356;45.638;13.764;2023-06-22T05:36:57;24.67;;;12.63;;
75737;SDS011;64356;45.638;13.764;2023-06-22T05:39:24;34.28;;;12.90;;
75737;SDS011;64356;45.638;13.764;2023-06-22T05:41:50;21.50;;;12.27;;
75737;SDS011;64356;45.638;13.764;2023-06-22T05:44:17;24.58;;;12.27;;
75737;SDS011;64356;45.638;13.764;2023-06-22T05:46:43;24.15;;;12.77;;
75737;SDS011;64356;45.638;13.764;2023-06-22T05:49:09;26.35;;;11.75;;
75737;SDS011;64356;45.638;13.764;2023-06-22T05:51:36;18.58;;;12.85;;
75737;SDS011;64356;45.638;13.764;2023-06-22T05:54:02;31.60;;;13.02;;
75737;SDS011;64356;45.638;13.764;2023-06-22T05:56:28;27.08;;;13.20;;
75737;SDS011;64356;45.638;13.764;2023-06-22T05:58:53;35.65;;;12.93;;
75737;SDS011;64356;45.638;13.764;2023-06-22T06:01:19;34.90;;;13.13;;
75737;SDS011;64356;45.638;13.764;2023-06-22T06:03:45;35.85;;;13.35;;
75737;SDS011;64356;45.638;13.764;2023-06-22T06:06:11;30.20;;;14.75;;
75737;SDS011;64356;45.638;13.764;2023-06-22T06:08:37;26.20;;;13.43;;
75737;SDS011;64356;45.638;13.764;2023-06-22T06:11:04;26.35;;;13.38;;
75737;SDS011;64356;45.638;13.764;2023-06-22T06:13:30;22.13;;;13.15;;
75737;SDS011;64356;45.638;13.764;2023-06-22T06:15:56;22.63;;;12.77;;
75737;SDS011;64356;45.638;13.764;2023-06-22T06:18:22;31.30;;;13.45;;
75737;SDS011;64356;45.638;13.764;2023-06-22T06:20:48;30.73;;;13.38;;
75737;SDS011;64356;45.638;13.764;2023-06-22T06:23:14;20.38;;;12.65;;
75737;SDS011;64356;45.638;13.764;2023-06-22T06:25:40;25.50;;;13.18;;
75737;SDS011;64356;45.638;13.764;2023-06-22T06:28:05;25.50;;;12.13;;
75737;SDS011;64356;45.638;13.764;2023-06-22T06:30:31;25.85;;;12.32;;
75737;SDS011;64356;45.638;13.764;2023-06-22T06:32:57;19.75;;;12.38;;
75737;SDS011;64356;45.638;13.764;2023-06-22T06:35:23;32.63;;;13.40;;
75737;SDS011;64356;45.638;13.764;2023-06-22T06:37:49;27.52;;;13.15;;
75737;SDS011;64356;45.638;13.764;2023-06-22T06:40:16;25.05;;;12.20;;
75737;SDS011;64356;45.638;13.764;2023-06-22T06:42:43;22.92;;;13.40;;
75737;SDS011;64356;45.638;13.764;2023-06-22T06:45:11;26.65;;;12.70;;
75737;SDS011;64356;45.638;13.764;2023-06-22T06:47:38;21.77;;;12.00;;
75737;SDS011;64356;45.638;13.764;2023-06-22T06:50:04;27.08;;;12.40;;
75737;SDS011;64356;45.638;13.764;2023-06-22T06:52:31;28.70;;;13.27;;
75737;SDS011;64356;45.638;13.764;2023-06-22T06:54:57;24.67;;;11.95;;
75737;SDS011;64356;45.638;13.764;2023-06-22T06:57:23;27.60;;;13.85;;
75737;SDS011;64356;45.638;13.764;2023-06-22T06:59:54;21.13;;;12.65;;
75737;SDS011;64356;45.638;13.764;2023-06-22T07:02:23;22.02;;;11.30;;
75737;SDS011;64356;45.638;13.764;2023-06-22T07:04:49;20.63;;;12.30;;
75737;SDS011;64356;45.638;13.764;2023-06-22T07:07:15;20.60;;;12.20;;
75737;SDS011;64356;45.638;13.764;2023-06-22T07:09:41;17.42;;;12.98;;
75737;SDS011;64356;45.638;13.764;2023-06-22T07:12:07;20.30;;;12.75;;
75737;SDS011;64356;45.638;13.764;2023-06-22T07:14:33;21.35;;;12.20;;
75737;SDS011;64356;45.638;13.764;2023-06-22T07:16:58;23.27;;;11.32;;
75737;SDS011;64356;45.638;13.764;2023-06-22T07:19:25;20.98;;;12.63;;
75737;SDS011;64356;45.638;13.764;2023-06-22T07:21:51;25.25;;;13.18;;
75737;SDS011;64356;45.638;13.764;2023-06-22T07:24:18;21.20;;;13.40;;
75737;SDS011;64356;45.638;13.764;2023-06-22T07:26:47;23.92;;;13.27;;
75737;SDS011;64356;45.638;13.764;2023-06-22T07:29:15;23.23;;;13.30;;
75737;SDS011;64356;45.638;13.764;2023-06-22T07:31:42;17.70;;;12.77;;
75737;SDS011;64356;45.638;13.764;2023-06-22T07:34:07;18.90;;;14.07;;
75737;SDS011;64356;45.638;13.764;2023-06-22T07:36:33;17.02;;;13.05;;
75737;SDS011;64356;45.638;13.764;2023-06-22T07:39:00;25.45;;;13.30;;
75737;SDS011;64356;45.638;13.764;2023-06-22T07:41:30;18.92;;;12.30;;
75737;SDS011;64356;45.638;13.764;2023-06-22T07:43:56;20.65;;;13.45;;
75737;SDS011;64356;45.638;13.764;2023-06-22T07:46:22;17.90;;;13.50;;
75737;SDS011;64356;45.638;13.764;2023-06-22T07:48:48;39.03;;;14.25;;
75737;SDS011;64356;45.638;13.764;2023-06-22T07:51:14;20.50;;;11.68;;
75737;SDS011;64356;45.638;13.764;2023-06-22T07:53:40;18.10;;;12.63;;
75737;SDS011;64356;45.638;13.764;2023-06-22T07:56:07;25.23;;;14.15;;
75737;SDS011;64356;45.638;13.764;2023-06-22T07:58:35;20.13;;;13.30;;
75737;SDS011;64356;45.638;13.764;2023-06-22T08:01:01;23.95;;;14.23;;
75737;SDS011;64356;45.638;13.764;2023-06-22T08:03:28;18.23;;;12.95;;
75737;SDS011;64356;45.638;13.764;2023-06-22T08:05:53;19.33;;;13.25;;
75737;SDS011;64356;45.638;13.764;2023-06-22T08:08:19;23.45;;;14.38;;
75737;SDS011;64356;45.638;13.764;2023-06-22T08:10:45;16.38;;;13.73;;
75737;SDS011;64356;45.638;13.764;2023-06-22T08:13:11;23.15;;;13.02;;
75737;SDS011;64356;45.638;13.764;2023-06-22T08:15:37;21.33;;;14.75;;
75737;SDS011;64356;45.638;13.764;2023-06-22T08:18:02;33.05;;;15.43;;
75737;SDS011;64356;45.638;13.764;2023-06-22T08:20:28;23.67;;;13.77;;
75737;SDS011;64356;45.638;13.764;2023-06-22T08:22:54;27.48;;;14.45;;
75737;SDS011;64356;45.638;13.764;2023-06-22T08:25:21;19.65;;;14.38;;
75737;SDS011;64356;45.638;13.764;2023-06-22T08:27:47;18.98;;;12.52;;
75737;SDS011;64356;45.638;13.764;2023-06-22T08:30:13;19.50;;;13.55;;
75737;SDS011;64356;45.638;13.764;2023-06-22T08:32:40;18.10;;;12.82;;
75737;SDS011;64356;45.638;13.764;2023-06-22T08:35:06;17.73;;;12.88;;
75737;SDS011;64356;45.638;13.764;2023-06-22T08:37:33;20.63;;;14.30;;
75737;SDS011;64356;45.638;13.764;2023-06-22T08:40:00;18.52;;;11.75;;
75737;SDS011;64356;45.638;13.764;2023-06-22T08:42:30;31.83;;;13.57;;
75737;SDS011;64356;45.638;13.764;2023-06-22T08:44:56;31.52;;;13.75;;
75737;SDS011;64356;45.638;13.764;2023-06-22T08:47:22;25.00;;;13.77;;
75737;SDS011;64356;45.638;13.764;2023-06-22T08:49:48;27.60;;;12.55;;
75737;SDS011;64356;45.638;13.764;2023-06-22T08:52:14;32.65;;;12.90;;
75737;SDS011;64356;45.638;13.764;2023-06-22T08:54:40;25.52;;;12.95;;
75737;SDS011;64356;45.638;13.764;2023-06-22T08:57:06;28.42;;;12.35;;
75737;SDS011;64356;45.638;13.764;2023-06-22T08:59:32;20.80;;;13.65;;
75737;SDS011;64356;45.638;13.764;2023-06-22T09:01:57;27.00;;;13.50;;
75737;SDS011;64356;45.638;13.764;2023-06-22T09:04:24;26.50;;;13.57;;
75737;SDS011;64356;45.638;13.764;2023-06-22T09:06:56;25.35;;;14.43;;
75737;SDS011;64356;45.638;13.764;2023-06-22T09:09:22;22.67;;;13.82;;
75737;SDS011;64356;45.638;13.764;2023-06-22T09:11:47;24.77;;;14.00;;
75737;SDS011;64356;45.638;13.764;2023-06-22T09:14:13;24.80;;;14.75;;
75737;SDS011;64356;45.638;13.764;2023-06-22T09:16:39;18.98;;;13.07;;
75737;SDS011;64356;45.638;13.764;2023-06-22T09:19:04;23.55;;;13.95;;
75737;SDS011;64356;45.638;13.764;2023-06-22T09:21:30;24.33;;;14.65;;
75737;SDS011;64356;45.638;13.764;2023-06-22T09:23:56;34.70;;;15.35;;
75737;SDS011;64356;45.638;13.764;2023-06-22T09:26:21;23.77;;;15.55;;
75737;SDS011;64356;45.638;13.764;2023-06-22T09:28:49;25.50;;;15.38;;
75737;SDS011;64356;45.638;13.764;2023-06-22T09:31:15;22.75;;;14.63;;
75737;SDS011;64356;45.638;13.764;2023-06-22T09:33:41;18.13;;;13.40;;
75737;SDS011;64356;45.638;13.764;2023-06-22T09:36:07;32.30;;;14.65;;
75737;SDS011;64356;45.638;13.764;2023-06-22T09:38:37;20.60;;;13.32;;
75737;SDS011;64356;45.638;13.764;2023-06-22T09:41:03;16.38;;;13.88;;
75737;SDS011;64356;45.638;13.764;2023-06-22T09:43:32;22.55;;;13.40;;
75737;SDS011;64356;45.638;13.764;2023-06-22T09:46:00;25.08;;;13.35;;
75737;SDS011;64356;45.638;13.764;2023-06-22T09:48:27;23.75;;;13.93;;
75737;SDS011;64356;45.638;13.764;2023-06-22T09:50:53;22.30;;;14.23;;
75737;SDS011;64356;45.638;13.764;2023-06-22T09:53:19;22.13;;;12.60;;
75737;SDS011;64356;45.638;13.764;2023-06-22T09:55:45;17.65;;;11.73;;
75737;SDS011;64356;45.638;13.764;2023-06-22T09:58:10;23.52;;;13.05;;
75737;SDS011;64356;45.638;13.764;2023-06-22T10:00:36;28.40;;;12.43;;
75737;SDS011;64356;45.638;13.764;2023-06-22T10:03:02;27.88;;;12.82;;
75737;SDS011;64356;45.638;13.764;2023-06-22T10:05:27;19.63;;;12.02;;
75737;SDS011;64356;45.638;13.764;2023-06-22T10:07:53;21.55;;;12.60;;
75737;SDS011;64356;45.638;13.764;2023-06-22T10:10:19;20.52;;;12.50;;
75737;SDS011;64356;45.638;13.764;2023-06-22T10:12:46;16.95;;;11.80;;
75737;SDS011;64356;45.638;13.764;2023-06-22T10:15:13;13.05;;;10.35;;
75737;SDS011;64356;45.638;13.764;2023-06-22T10:17:39;18.02;;;11.98;;
75737;SDS011;64356;45.638;13.764;2023-06-22T10:20:05;13.50;;;10.85;;
75737;SDS011;64356;45.638;13.764;2023-06-22T10:22:39;20.15;;;11.65;;
75737;SDS011;64356;45.638;13.764;2023-06-22T10:25:05;14.20;;;12.30;;
75737;SDS011;64356;45.638;13.764;2023-06-22T10:27:32;27.02;;;13.00;;
75737;SDS011;64356;45.638;13.764;2023-06-22T10:29:57;16.30;;;10.90;;
75737;SDS011;64356;45.638;13.764;2023-06-22T10:32:23;19.25;;;11.13;;
75737;SDS011;64356;45.638;13.764;2023-06-22T10:34:49;16.60;;;10.68;;
75737;SDS011;64356;45.638;13.764;2023-06-22T10:37:14;15.15;;;11.23;;
75737;SDS011;64356;45.638;13.764;2023-06-22T10:39:40;26.23;;;11.95;;
75737;SDS011;64356;45.638;13.764;2023-06-22T10:42:06;19.90;;;10.95;;
75737;SDS011;64356;45.638;13.764;2023-06-22T10:44:32;16.33;;;10.35;;
75737;SDS011;64356;45.638;13.764;2023-06-22T10:46:58;17.73;;;11.35;;
75737;SDS011;64356;45.638;13.764;2023-06-22T10:49:23;17.35;;;9.85;;
75737;SDS011;64356;45.638;13.764;2023-06-22T10:51:49;16.80;;;10.18;;
75737;SDS011;64356;45.638;13.764;2023-06-22T10:54:15;17.52;;;9.25;;
75737;SDS011;64356;45.638;13.764;2023-06-22T10:56:43;19.83;;;9.73;;
75737;SDS011;64356;45.638;13.764;2023-06-22T10:59:09;11.80;;;8.38;;
75737;SDS011;64356;45.638;13.764;2023-06-22T11:01:34;22.60;;;10.95;;
75737;SDS011;64356;45.638;13.764;2023-06-22T11:04:01;23.42;;;10.15;;
75737;SDS011;64356;45.638;13.764;2023-06-22T11:06:26;19.98;;;9.73;;
75737;SDS011;64356;45.638;13.764;2023-06-22T11:08:52;14.60;;;11.05;;
75737;SDS011;64356;45.638;13.764;2023-06-22T11:11:18;12.88;;;10.38;;
75737;SDS011;64356;45.638;13.764;2023-06-22T11:13:43;14.27;;;9.02;;
75737;SDS011;64356;45.638;13.764;2023-06-22T11:16:09;24.77;;;9.55;;
75737;SDS011;64356;45.638;13.764;2023-06-22T11:18:35;14.07;;;9.35;;
75737;SDS011;64356;45.638;13.764;2023-06-22T11:21:01;11.40;;;8.27;;
75737;SDS011;64356;45.638;13.764;2023-06-22T11:23:27;12.05;;;9.00;;
75737;SDS011;64356;45.638;13.764;2023-06-22T11:25:53;16.13;;;9.20;;
75737;SDS011;64356;45.638;13.764;2023-06-22T11:28:19;20.20;;;10.23;;
75737;SDS011;64356;45.638;13.764;2023-06-22T11:30:45;17.58;;;9.52;;
75737;SDS011;64356;45.638;13.764;2023-06-22T11:33:11;12.90;;;9.10;;
75737;SDS011;64356;45.638;13.764;2023-06-22T11:35:37;15.30;;;9.52;;
75737;SDS011;64356;45.638;13.764;2023-06-22T11:38:03;14.02;;;9.52;;
75737;SDS011;64356;45.638;13.764;2023-06-22T11:40:30;14.93;;;9.40;;
75737;SDS011;64356;45.638;13.764;2023-06-22T11:42:55;17.45;;;9.32;;
75737;SDS011;64356;45.638;13.764;2023-06-22T11:45:21;19.90;;;9.07;;
75737;SDS011;64356;45.638;13.764;2023-06-22T11:47:47;13.65;;;8.88;;
75737;SDS011;64356;45.638;13.764;2023-06-22T11:50:13;22.00;;;10.98;;
75737;SDS011;64356;45.638;13.764;2023-06-22T11:52:39;15.73;;;10.57;;
75737;SDS011;64356;45.638;13.764;2023-06-22T11:55:05;13.25;;;10.23;;
75737;SDS011;64356;45.638;13.764;2023-06-22T11:57:35;12.50;;;10.10;;
75737;SDS011;64356;45.638;13.764;2023-06-22T12:00:02;14.68;;;9.95;;
75737;SDS011;64356;45.638;13.764;2023-06-22T12:02:40;20.63;;;11.45;;
75737;SDS011;64356;45.638;13.764;2023-06-22T12:05:06;16.30;;;10.90;;
75737;SDS011;64356;45.638;13.764;2023-06-22T12:07:33;17.95;;;11.45;;
75737;SDS011;64356;45.638;13.764;2023-06-22T12:09:58;26.25;;;10.13;;
75737;SDS011;64356;45.638;13.764;2023-06-22T12:12:24;21.92;;;11.80;;
75737;SDS011;64356;45.638;13.764;2023-06-22T12:14:50;17.92;;;11.02;;
75737;SDS011;64356;45.638;13.764;2023-06-22T12:17:15;22.40;;;10.82;;
75737;SDS011;64356;45.638;13.764;2023-06-22T12:19:41;23.77;;;12.63;;
75737;SDS011;64356;45.638;13.764;2023-06-22T12:22:07;15.80;;;11.82;;
75737;SDS011;64356;45.638;13.764;2023-06-22T12:24:32;32.08;;;12.25;;
75737;SDS011;64356;45.638;13.764;2023-06-22T12:26:58;22.23;;;12.23;;
75737;SDS011;64356;45.638;13.764;2023-06-22T12:29:24;18.75;;;11.90;;
75737;SDS011;64356;45.638;13.764;2023-06-22T12:31:49;15.18;;;10.40;;
75737;SDS011;64356;45.638;13.764;2023-06-22T12:34:15;26.75;;;11.23;;
75737;SDS011;64356;45.638;13.764;2023-06-22T12:36:41;19.08;;;11.30;;
75737;SDS011;64356;45.638;13.764;2023-06-22T12:39:07;17.45;;;11.25;;
75737;SDS011;64356;45.638;13.764;2023-06-22T12:41:32;15.02;;;10.85;;
75737;SDS011;64356;45.638;13.764;2023-06-22T12:43:58;16.23;;;10.75;;
75737;SDS011;64356;45.638;13.764;2023-06-22T12:46:24;19.83;;;10.82;;
75737;SDS011;64356;45.638;13.764;2023-06-22T12:48:49;18.00;;;11.77;;
75737;SDS011;64356;45.638;13.764;2023-06-22T12:51:21;20.02;;;11.90;;
75737;SDS011;64356;45.638;13.764;2023-06-22T12:53:48;26.10;;;11.55;;
75737;SDS011;64356;45.638;13.764;2023-06-22T12:56:13;17.90;;;10.55;;
75737;SDS011;64356;45.638;13.764;2023-06-22T12:58:39;13.23;;;9.88;;
75737;SDS011;64356;45.638;13.764;2023-06-22T13:01:05;22.80;;;11.45;;
75737;SDS011;64356;45.638;13.764;2023-06-22T13:03:30;16.52;;;10.13;;
75737;SDS011;64356;45.638;13.764;2023-06-22T13:05:56;14.32;;;10.40;;
75737;SDS011;64356;45.638;13.764;2023-06-22T13:08:22;21.58;;;10.27;;
75737;SDS011;64356;45.638;13.764;2023-06-22T13:10:47;19.33;;;11.18;;
75737;SDS011;64356;45.638;13.764;2023-06-22T13:13:13;20.08;;;11.80;;
75737;SDS011;64356;45.638;13.764;2023-06-22T13:15:39;24.05;;;11.52;;
75737;SDS011;64356;45.638;13.764;2023-06-22T13:18:04;16.17;;;11.93;;
75737;SDS011;64356;45.638;13.764;2023-06-22T13:20:30;24.33;;;10.75;;
75737;SDS011;64356;45.638;13.764;2023-06-22T13:22:56;21.15;;;11.30;;
75737;SDS011;64356;45.638;13.764;2023-06-22T13:25:22;16.42;;;10.98;;
75737;SDS011;64356;45.638;13.764;2023-06-22T13:27:51;18.75;;;11.68;;
75737;SDS011;64356;45.638;13.764;2023-06-22T13:30:17;20.05;;;11.93;;
75737;SDS011;64356;45.638;13.764;2023-06-22T13:32:43;24.65;;;11.25;;
75737;SDS011;64356;45.638;13.764;2023-06-22T13:35:11;19.92;;;11.05;;
75737;SDS011;64356;45.638;13.764;2023-06-22T13:37:37;13.73;;;11.32;;
75737;SDS011;64356;45.638;13.764;2023-06-22T13:40:04;18.48;;;11.30;;
75737;SDS011;64356;45.638;13.764;2023-06-22T13:42:32;19.48;;;11.07;;
75737;SDS011;64356;45.638;13.764;2023-06-22T13:44:57;28.17;;;11.32;;
75737;SDS011;64356;45.638;13.764;2023-06-22T13:47:23;16.52;;;10.25;;
75737;SDS011;64356;45.638;13.764;2023-06-22T13:49:49;11.48;;;9.60;;
75737;SDS011;64356;45.638;13.764;2023-06-22T13:52:15;15.43;;;10.13;;
75737;SDS011;64356;45.638;13.764;2023-06-22T13:54:40;22.05;;;9.98;;
75737;SDS011;64356;45.638;13.764;2023-06-22T13:57:06;14.15;;;9.65;;
75737;SDS011;64356;45.638;13.764;2023-06-22T13:59:32;21.35;;;9.57;;
75737;SDS011;64356;45.638;13.764;2023-06-22T14:01:58;17.27;;;9.23;;
75737;SDS011;64356;45.638;13.764;2023-06-22T14:04:23;14.18;;;9.18;;
75737;SDS011;64356;45.638;13.764;2023-06-22T14:06:49;13.23;;;9.95;;
75737;SDS011;64356;45.638;13.764;2023-06-22T14:09:15;19.85;;;10.65;;
75737;SDS011;64356;45.638;13.764;2023-06-22T14:11:41;13.95;;;9.35;;
75737;SDS011;64356;45.638;13.764;2023-06-22T14:14:06;14.52;;;9.00;;
75737;SDS011;64356;45.638;13.764;2023-06-22T14:16:32;19.55;;;8.75;;
75737;SDS011;64356;45.638;13.764;2023-06-22T14:18:58;18.27;;;8.13;;
75737;SDS011;64356;45.638;13.764;2023-06-22T14:21:24;13.43;;;8.05;;